Time;durP1;ratioP1;P1;durP2;ratioP2;P2;SDS_P1;SDS_P2;PMS_P1;PMS_P2;Temp;Humidity;BMP_temperature;BMP_pressure;BME280_temperature;BME280_humidity;BME280_pressure;Samples;Min_cycle;Max_cycle;Signal;HPM_P1;HPM_P2
2022/12/30 00:00:38;;;;;;;;;9.00;9.00;;;;;10.93;66.40;100772.28;2097810;28;45802;-62
2022/12/30 00:01:39;;;;;;;;;9.25;8.00;;;;;10.91;66.37;100768.75;2098795;28;47498;-61
2022/12/30 00:02:39;;;;;;;;;10.00;9.00;;;;;10.89;66.63;100771.44;2096279;28;46557;-61
2022/12/30 00:03:39;;;;;;;;;9.00;9.00;;;;;10.88;66.27;100769.69;2096557;28;46559;-62
2022/12/30 00:04:40;;;;;;;;;9.00;8.00;;;;;10.88;66.42;100767.03;2105799;28;46697;-62
2022/12/30 00:05:40;;;;;;;;;9.00;8.00;;;;;10.86;66.50;100768.88;2106119;28;46868;-61
2022/12/30 00:06:41;;;;;;;;;7.33;7.33;;;;;10.84;66.70;100761.84;2106060;28;46764;-62
2022/12/30 00:07:41;;;;;;;;;10.00;8.00;;;;;10.81;66.50;100761.94;2105837;28;46682;-61
2022/12/30 00:08:56;;;;;;;;;11.33;9.67;;;;;10.80;66.49;100760.19;2105338;28;46356;-63
2022/12/30 00:09:56;;;;;;;;;11.50;8.00;;;;;10.77;67.05;100762.88;2105461;27;45978;-62
2022/12/30 00:10:57;;;;;;;;;10.67;10.33;;;;;10.75;66.88;100760.25;2096291;28;46259;-62
2022/12/30 00:33:06;;;;;;;;;11.00;8.00;;;;;10.72;66.75;100747.06;2088114;28;46402;-62
2022/12/30 00:34:06;;;;;;;;;8.25;5.00;;;;;10.52;67.26;100744.81;2086626;28;46233;-62
2022/12/30 00:35:08;;;;;;;;;5.25;5.25;;;;;10.52;67.29;100747.47;2079679;28;46274;-61
2022/12/30 00:36:08;;;;;;;;;7.00;7.00;;;;;10.51;67.45;100740.41;2080298;28;46724;-62
2022/12/30 00:37:09;;;;;;;;;7.67;6.00;;;;;10.49;67.70;100742.25;2079677;28;46325;-62
2022/12/30 00:38:09;;;;;;;;;7.00;5.00;;;;;10.49;67.50;100736.94;2085807;28;46295;-62
2022/12/30 00:39:09;;;;;;;;;6.33;6.33;;;;;10.49;67.39;100728.09;2088127;28;46471;-63
2022/12/30 00:40:11;;;;;;;;;8.00;6.67;;;;;10.50;67.54;100735.16;2088156;28;46421;-62
2022/12/30 00:43:49;;;;;;;;;5.75;5.75;;;;;10.47;67.55;100730.78;2085502;28;46542;-61
2022/12/30 00:44:49;;;;;;;;;9.00;6.50;;;;;10.47;67.33;100719.31;2087811;28;46660;-63
2022/12/30 00:45:49;;;;;;;;;6.00;5.67;;;;;10.44;67.62;100722.91;2086088;28;46881;-61
2022/12/30 00:46:50;;;;;;;;;8.67;6.00;;;;;10.43;67.76;100721.16;2087833;28;46128;-62
2022/12/30 00:47:50;;;;;;;;;6.00;5.00;;;;;10.42;67.72;100722.06;2069480;28;46443;-60
2022/12/30 00:56:46;;;;;;;;;9.80;9.20;;;;;10.42;68.04;100729.16;2075948;28;46146;-61
2022/12/30 00:57:46;;;;;;;;;8.00;7.50;;;;;10.43;67.50;100733.56;2088094;28;45484;-63
2022/12/30 00:58:46;;;;;;;;;6.00;6.00;;;;;10.42;67.62;100731.81;2085396;28;46551;-61
2022/12/30 00:59:47;;;;;;;;;6.33;6.33;;;;;10.40;67.53;100722.97;2087920;28;46502;-61
2022/12/30 01:00:47;;;;;;;;;6.00;6.00;;;;;10.39;67.88;100729.19;2086930;28;45554;-62
2022/12/30 01:01:48;;;;;;;;;7.00;7.00;;;;;10.37;67.73;100734.53;2087487;28;46763;-62
2022/12/30 01:02:48;;;;;;;;;6.00;6.00;;;;;10.37;67.55;100723.03;2091764;27;46410;-61
2022/12/30 01:03:48;;;;;;;;;5.00;5.00;;;;;10.37;67.60;100725.69;2111627;27;46646;-62
2022/12/30 01:04:49;;;;;;;;;9.00;7.00;;;;;10.37;67.88;100723.03;2113876;27;46836;-62
2022/12/30 01:05:49;;;;;;;;;4.33;4.33;;;;;10.36;67.81;100716.88;2114241;27;46561;-62
2022/12/30 01:06:49;;;;;;;;;8.00;7.00;;;;;10.36;67.64;100716.00;2112617;27;47037;-62
2022/12/30 01:07:50;;;;;;;;;7.67;6.67;;;;;10.35;67.72;100711.59;2113319;27;46361;-61
2022/12/30 01:08:51;;;;;;;;;8.00;6.00;;;;;10.34;67.76;100704.56;2104934;28;46252;-61
2022/12/30 01:09:51;;;;;;;;;6.00;4.33;;;;;10.34;67.84;100712.50;2104260;28;46299;-61
2022/12/30 01:10:51;;;;;;;;;6.33;6.33;;;;;10.32;67.81;100702.81;2113920;27;46295;-61
2022/12/30 01:12:10;;;;;;;;;4.67;4.67;;;;;10.34;67.53;100707.19;2105035;28;45928;-61
2022/12/30 01:13:10;;;;;;;;;6.25;6.00;;;;;10.35;67.72;100706.28;2106869;27;46786;-63
2022/12/30 01:14:11;;;;;;;;;5.67;4.33;;;;;10.33;67.68;100706.31;2113721;27;46404;-61
2022/12/30 01:15:11;;;;;;;;;7.00;6.00;;;;;10.31;67.81;100701.06;2108085;27;46632;-62
2022/12/30 01:16:15;;;;;;;;;6.33;6.33;;;;;10.30;67.63;100704.63;2107200;27;46331;-62
2022/12/30 01:17:19;;;;;;;;;8.25;8.00;;;;;10.30;67.74;100706.41;2114059;27;46481;-61
2022/12/30 01:18:19;;;;;;;;;5.75;4.00;;;;;10.28;67.93;100706.41;2113238;27;46946;-61
2022/12/30 01:19:19;;;;;;;;;6.33;6.00;;;;;10.29;67.54;100704.63;2113648;27;46649;-62
2022/12/30 01:20:19;;;;;;;;;6.67;6.00;;;;;10.28;67.71;100706.41;2114203;27;46804;-61
2022/12/30 01:21:20;;;;;;;;;7.67;7.33;;;;;10.28;68.08;100697.56;2112330;27;46235;-62
2022/12/30 01:22:20;;;;;;;;;6.67;5.67;;;;;10.26;67.94;100700.25;2105471;28;46240;-61
2022/12/30 01:23:21;;;;;;;;;6.00;6.00;;;;;10.27;67.85;100704.66;2109694;27;47226;-61
2022/12/30 01:24:21;;;;;;;;;7.67;5.33;;;;;10.28;68.12;100702.88;2113788;27;47018;-61
2022/12/30 01:25:22;;;;;;;;;3.33;3.33;;;;;10.27;68.07;100704.66;2114112;27;45074;-60
2022/12/30 01:26:22;;;;;;;;;6.00;6.00;;;;;10.25;68.05;100703.81;2110246;27;46448;-61
2022/12/30 01:27:22;;;;;;;;;6.00;5.00;;;;;10.25;68.07;100695.88;2113088;27;46310;-61
2022/12/30 01:28:23;;;;;;;;;6.00;6.00;;;;;10.25;68.00;100695.88;2104410;28;45923;-61
2022/12/30 01:29:34;;;;;;;;;8.33;5.33;;;;;10.26;67.83;100699.38;2102748;28;46752;-61
2022/12/30 01:30:34;;;;;;;;;7.00;6.50;;;;;10.26;68.22;100700.25;2114282;27;46336;-62
2022/12/30 01:31:34;;;;;;;;;7.00;7.00;;;;;10.26;67.98;100688.78;2112156;27;46884;-62
2022/12/30 01:32:36;;;;;;;;;5.00;5.00;;;;;10.28;68.11;100686.97;2111812;27;45957;-60
2022/12/30 01:33:37;;;;;;;;;6.25;6.25;;;;;10.28;67.96;100693.13;2105611;28;46317;-62
2022/12/30 01:34:37;;;;;;;;;6.33;5.00;;;;;10.27;67.77;100690.53;2109430;27;47097;-60
2022/12/30 01:35:38;;;;;;;;;6.00;5.00;;;;;10.25;68.05;100689.69;2113691;27;46982;-61
2022/12/30 01:36:38;;;;;;;;;6.33;6.00;;;;;10.25;67.99;100692.34;2105540;28;46687;-61
2022/12/30 01:37:38;;;;;;;;;5.00;5.00;;;;;10.23;68.05;100691.50;2107626;27;46679;-62
2022/12/30 01:38:39;;;;;;;;;6.00;5.00;;;;;10.22;67.99;100695.06;2114005;27;45706;-61
2022/12/30 01:39:40;;;;;;;;;6.67;5.00;;;;;10.22;68.17;100695.94;2113452;27;45869;-61
2022/12/30 01:40:41;;;;;;;;;7.25;5.00;;;;;10.22;68.12;100698.59;2112511;27;46788;-61
2022/12/30 01:41:42;;;;;;;;;6.00;6.00;;;;;10.22;68.06;100692.41;2113887;27;47356;-61
2022/12/30 01:42:42;;;;;;;;;6.33;6.33;;;;;10.21;68.00;100696.84;2113469;27;46193;-62
2022/12/30 01:43:46;;;;;;;;;6.00;6.00;;;;;10.21;68.14;100698.59;2113898;27;46672;-62
2022/12/30 01:44:57;;;;;;;;;5.00;5.00;;;;;10.21;68.07;100698.59;2105493;27;46852;-61
2022/12/30 01:45:58;;;;;;;;;6.00;5.75;;;;;10.21;68.12;100702.16;2106088;27;46218;-61
2022/12/30 01:46:58;;;;;;;;;5.00;5.00;;;;;10.20;68.07;100697.72;2105223;28;46782;-62
2022/12/30 01:48:14;;;;;;;;;6.00;6.00;;;;;10.20;67.90;100700.38;2105940;27;46460;-62
2022/12/30 01:49:14;;;;;;;;;5.50;4.50;;;;;10.21;68.01;100698.59;2109231;27;45872;-62
2022/12/30 01:50:17;;;;;;;;;6.33;4.33;;;;;10.21;68.08;100707.44;2113983;27;47154;-62
2022/12/30 01:51:26;;;;;;;;;6.25;5.75;;;;;10.22;68.17;100705.66;2113656;27;46572;-62
2022/12/30 01:52:27;;;;;;;;;6.75;5.00;;;;;10.22;68.13;100706.53;2109507;27;46245;-62
2022/12/30 01:53:32;;;;;;;;;7.00;6.00;;;;;10.24;68.07;100698.56;2096248;28;46530;-62
2022/12/30 01:54:35;;;;;;;;;8.00;5.00;;;;;10.24;68.39;100702.06;2097197;28;46913;-62
2022/12/30 01:55:42;;;;;;;;;7.00;6.25;;;;;10.25;68.42;100695.00;2109462;27;46881;-62
2022/12/30 01:56:42;;;;;;;;;6.50;5.25;;;;;10.25;68.04;100693.22;2096829;28;46239;-62
2022/12/30 01:57:47;;;;;;;;;5.67;5.67;;;;;10.26;68.20;100691.44;2104325;28;46220;-62
2022/12/30 01:58:53;;;;;;;;;7.50;7.50;;;;;10.26;68.16;100688.78;2108542;27;46551;-61
2022/12/30 01:59:54;;;;;;;;;6.75;6.00;;;;;10.29;68.29;100691.34;2113623;27;46505;-61
2022/12/30 02:00:54;;;;;;;;;6.67;5.67;;;;;10.28;67.94;100690.50;2113563;27;46703;-62
2022/12/30 02:01:54;;;;;;;;;5.00;5.00;;;;;10.28;68.12;100689.63;2111245;27;46611;-62
2022/12/30 02:02:56;;;;;;;;;7.33;6.67;;;;;10.28;68.04;100689.63;2104042;28;45605;-62
2022/12/30 02:04:03;;;;;;;;;5.00;4.50;;;;;10.28;67.99;100684.31;2109135;27;46998;-62
2022/12/30 02:05:06;;;;;;;;;7.25;6.00;;;;;10.26;68.44;100687.00;2111864;27;46558;-63
2022/12/30 02:06:07;;;;;;;;;6.00;5.75;;;;;10.23;68.50;100687.06;2105273;28;46817;-61
2022/12/30 02:07:17;;;;;;;;;6.75;6.00;;;;;10.22;68.19;100690.63;2105791;27;45397;-62
2022/12/30 02:08:20;;;;;;;;;8.00;7.75;;;;;10.22;68.17;100692.41;2105753;27;46342;-61
2022/12/30 02:09:20;;;;;;;;;10.25;6.00;;;;;10.22;68.40;100681.81;2113736;27;46331;-62
2022/12/30 02:10:22;;;;;;;;;7.33;7.33;;;;;10.22;68.31;100687.09;2108091;27;45925;-61
2022/12/30 02:11:23;;;;;;;;;5.50;5.00;;;;;10.20;68.33;100684.47;2105512;28;46600;-62
2022/12/30 02:12:23;;;;;;;;;5.00;5.00;;;;;10.19;68.50;100688.03;2105429;28;46677;-62
2022/12/30 02:13:23;;;;;;;;;5.67;5.33;;;;;10.17;68.34;100689.84;2108770;27;46302;-61
2022/12/30 02:14:27;;;;;;;;;6.33;5.67;;;;;10.18;68.51;100690.72;2113563;27;46412;-62
2022/12/30 02:15:38;;;;;;;;;7.75;7.25;;;;;10.18;68.46;100690.72;2106072;27;46236;-61
2022/12/30 02:16:57;;;;;;;;;8.00;8.00;;;;;10.16;68.60;100684.53;2108936;27;46695;-62
2022/12/30 02:18:21;;;;;;;;;9.00;7.00;;;;;10.15;68.33;100693.41;2113401;27;46932;-63
2022/12/30 02:19:36;;;;;;;;;6.50;4.75;;;;;10.14;68.66;100695.19;2113490;27;46786;-62
2022/12/30 02:20:42;;;;;;;;;3.75;2.75;;;;;10.15;68.65;100688.09;2096795;28;45385;-63
2022/12/30 02:22:03;;;;;;;;;7.00;6.00;;;;;10.16;68.84;100689.84;2103473;27;46642;-62
2022/12/30 02:23:28;;;;;;;;;5.75;5.50;;;;;10.16;68.66;100693.34;2106914;27;46690;-61
2022/12/30 02:24:51;;;;;;;;;9.50;8.25;;;;;10.16;68.65;100695.13;2113656;27;46426;-62
2022/12/30 02:26:10;;;;;;;;;10.40;7.20;;;;;10.18;68.74;100691.56;2114101;27;46902;-60
2022/12/30 02:27:25;;;;;;;;;5.75;5.75;;;;;10.18;68.72;100694.22;2096681;28;47173;-62
2022/12/30 02:28:52;;;;;;;;;6.25;6.25;;;;;10.19;68.55;100688.03;2104072;28;46508;-62
2022/12/30 02:30:12;;;;;;;;;5.50;5.50;;;;;10.21;68.72;100695.94;2108340;27;46722;-62
2022/12/30 02:31:31;;;;;;;;;6.75;6.75;;;;;10.21;68.59;100690.63;2108944;27;46000;-61
2022/12/30 02:32:55;;;;;;;;;5.50;5.50;;;;;10.23;68.69;100689.72;2105285;28;46367;-62
2022/12/30 02:34:14;;;;;;;;;9.75;7.75;;;;;10.24;68.76;100686.16;2096929;27;46920;-62
2022/12/30 02:35:18;;;;;;;;;7.20;6.20;;;;;10.24;68.72;100688.81;2113240;27;47002;-63
2022/12/30 02:36:27;;;;;;;;;12.80;9.20;;;;;10.23;68.84;100673.81;2110327;27;46023;-63
2022/12/30 02:37:43;;;;;;;;;10.60;9.40;;;;;10.22;68.79;100677.38;2105750;27;47034;-62
2022/12/30 02:38:53;;;;;;;;;8.50;8.50;;;;;10.20;69.01;100676.50;2113480;27;45845;-62
2022/12/30 02:40:12;;;;;;;;;11.80;8.60;;;;;10.18;68.97;100670.38;2113142;27;45766;-62
2022/12/30 02:45:41;;;;;;;;;9.50;8.00;;;;;10.11;69.32;100665.19;2111674;27;46715;-63
2022/12/30 02:46:48;;;;;;;;;9.50;7.75;;;;;10.09;69.43;100659.06;2113558;27;46856;-61
2022/12/30 02:47:54;;;;;;;;;9.25;7.75;;;;;10.07;69.37;100655.56;2111195;27;45384;-61
2022/12/30 02:48:57;;;;;;;;;7.00;7.00;;;;;10.06;69.51;100664.44;2111260;27;46743;-61
2022/12/30 02:52:43;;;;;;;;;8.75;8.00;;;;;10.04;69.93;100659.16;2105186;28;46901;-62
2022/12/30 02:53:43;;;;;;;;;9.00;9.00;;;;;10.05;69.88;100662.69;2108485;27;46302;-63
2022/12/30 02:54:47;;;;;;;;;10.00;9.75;;;;;10.06;69.62;100662.66;2114773;27;46230;-61
2022/12/30 02:55:48;;;;;;;;;9.60;9.60;;;;;10.06;69.89;100660.00;2112448;27;45746;-61
2022/12/30 02:56:52;;;;;;;;;7.00;5.75;;;;;10.07;69.70;100655.56;2107052;27;46504;-62
2022/12/30 02:57:52;;;;;;;;;10.00;9.00;;;;;10.05;70.04;100655.63;2115047;27;46764;-61
2022/12/30 03:03:57;;;;;;;;;7.25;7.25;;;;;10.02;70.14;100658.31;2110321;27;45844;-62
2022/12/30 03:03:57;;;;;;;;;7.75;7.75;;;;;9.98;70.11;100644.25;2106173;27;46434;-61
2022/12/30 03:05:14;;;;;;;;;9.25;9.25;;;;;9.98;70.54;100648.69;2104876;28;46386;-62
2022/12/30 03:06:42;;;;;;;;;14.60;13.60;;;;;9.98;70.45;100644.25;2098183;28;45619;-62
2022/12/30 03:08:00;;;;;;;;;13.20;11.80;;;;;9.98;70.54;100641.59;2097813;28;46941;-62
2022/12/30 03:09:25;;;;;;;;;10.25;9.00;;;;;10.00;70.14;100634.47;2098446;28;46781;-61
2022/12/30 03:12:21;;;;;;;;;11.20;11.20;;;;;10.00;70.31;100628.31;2088594;28;46425;-61
2022/12/30 03:13:33;;;;;;;;;8.00;8.00;;;;;10.01;70.21;100628.25;2092849;28;46469;-61
2022/12/30 03:14:45;;;;;;;;;10.60;10.60;;;;;10.02;70.42;100627.34;2095745;28;46347;-62
2022/12/30 03:15:58;;;;;;;;;9.00;8.20;;;;;10.03;70.27;100626.44;2088909;28;45542;-61
2022/12/30 03:17:28;;;;;;;;;7.00;7.00;;;;;10.07;70.60;100621.09;2088294;28;46823;-62
2022/12/30 03:18:29;;;;;;;;;11.75;10.75;;;;;10.08;70.36;100623.72;2088616;28;47085;-62
2022/12/30 03:19:36;;;;;;;;;9.75;9.75;;;;;10.09;70.45;100628.13;2088250;28;46586;-61
2022/12/30 03:20:39;;;;;;;;;8.75;8.75;;;;;10.10;70.35;100624.56;2088979;28;46419;-61
2022/12/30 03:21:42;;;;;;;;;9.20;9.20;;;;;10.11;70.33;100621.00;2091455;28;47019;-62
2022/12/30 03:27:03;;;;;;;;;13.80;12.00;;;;;10.12;70.40;100624.53;2094157;28;46612;-62
2022/12/30 03:28:08;;;;;;;;;11.25;10.50;;;;;10.13;70.53;100615.66;2090825;28;46440;-60
2022/12/30 03:29:16;;;;;;;;;15.20;13.40;;;;;10.11;70.33;100610.41;2088536;28;46277;-62
2022/12/30 03:30:17;;;;;;;;;14.80;11.40;;;;;10.11;70.35;100609.53;2096579;28;46418;-61
2022/12/30 03:31:19;;;;;;;;;13.20;12.20;;;;;10.10;70.49;100607.78;2094780;28;46383;-62
2022/12/30 03:32:21;;;;;;;;;12.20;10.80;;;;;10.08;70.28;100615.78;2096433;28;46868;-61
2022/12/30 03:33:22;;;;;;;;;11.25;10.50;;;;;10.08;70.36;100614.91;2088787;28;46779;-61
2022/12/30 03:34:24;;;;;;;;;13.33;11.00;;;;;10.06;70.66;100614.94;2065172;28;46169;-61
2022/12/30 03:35:28;;;;;;;;;8.00;7.80;;;;;10.05;70.86;100609.66;2072466;28;46746;-61
2022/12/30 03:36:34;;;;;;;;;10.50;10.00;;;;;10.02;70.78;100614.09;2089362;28;46457;-63
2022/12/30 03:37:40;;;;;;;;;9.00;8.25;;;;;10.01;70.64;100606.19;2089626;28;45188;-62
2022/12/30 03:38:47;;;;;;;;;9.75;9.75;;;;;10.01;70.65;100611.50;2097054;28;46957;-61
2022/12/30 03:39:59;;;;;;;;;12.50;10.25;;;;;10.03;71.01;100614.97;2095265;28;46434;-61
2022/12/30 03:41:04;;;;;;;;;10.25;8.75;;;;;10.02;70.96;100610.59;2091004;28;46635;-62
2022/12/30 03:42:06;;;;;;;;;14.00;10.20;;;;;10.02;70.97;100608.81;2080918;28;47270;-62
2022/12/30 03:43:09;;;;;;;;;9.25;9.25;;;;;10.02;71.06;100610.59;2086831;28;46608;-61
2022/12/30 03:44:11;;;;;;;;;15.00;13.20;;;;;10.02;71.23;100608.81;2095879;28;46525;-62
2022/12/30 03:45:13;;;;;;;;;10.80;9.00;;;;;10.02;71.19;100610.59;2096385;28;46746;-62
2022/12/30 03:46:13;;;;;;;;;12.60;12.40;;;;;10.02;71.01;100611.44;2095888;28;46273;-61
2022/12/30 03:47:15;;;;;;;;;13.25;11.00;;;;;10.02;70.92;100608.81;2095837;28;45962;-63
2022/12/30 03:48:16;;;;;;;;;14.00;12.60;;;;;10.03;71.41;100609.66;2096860;28;46335;-60
2022/12/30 03:49:17;;;;;;;;;10.75;9.75;;;;;10.02;71.12;100605.28;2103289;27;46715;-61
2022/12/30 03:50:17;;;;;;;;;11.20;9.20;;;;;10.00;71.21;100601.78;2114454;27;47036;-61
2022/12/30 03:51:18;;;;;;;;;11.00;8.67;;;;;9.99;71.30;100594.75;2108450;27;45711;-62
2022/12/30 03:52:21;;;;;;;;;11.33;9.00;;;;;9.98;71.48;100593.88;2109522;27;45911;-62
2022/12/30 03:53:21;;;;;;;;;9.25;8.00;;;;;9.99;71.55;100595.63;2115502;27;45881;-62
2022/12/30 03:54:21;;;;;;;;;13.00;11.00;;;;;10.01;71.53;100593.81;2113194;27;46530;-62
2022/12/30 03:55:22;;;;;;;;;9.00;7.67;;;;;10.01;71.59;100583.19;2113740;27;46173;-62
2022/12/30 03:56:22;;;;;;;;;12.00;12.00;;;;;10.01;71.38;100584.97;2107942;27;46335;-62
2022/12/30 03:57:22;;;;;;;;;7.33;7.33;;;;;10.01;71.08;100584.97;2112853;27;45407;-62
2022/12/30 03:58:23;;;;;;;;;6.75;6.00;;;;;10.00;71.58;100584.09;2114595;27;46430;-62
2022/12/30 03:59:23;;;;;;;;;14.25;9.75;;;;;10.02;71.19;100579.63;2114497;27;46556;-61
2022/12/30 04:00:24;;;;;;;;;10.75;9.00;;;;;10.00;71.38;100576.16;2113378;27;46714;-62
2022/12/30 04:01:24;;;;;;;;;11.25;7.75;;;;;10.01;71.56;100574.38;2114842;27;46352;-62
2022/12/30 04:02:24;;;;;;;;;16.00;9.75;;;;;10.01;71.29;100571.72;2114459;27;46333;-61
2022/12/30 04:03:25;;;;;;;;;10.00;8.33;;;;;10.00;71.21;100562.91;2106497;27;46334;-61
2022/12/30 04:04:25;;;;;;;;;9.00;9.00;;;;;10.01;71.52;100559.34;2105466;28;45173;-61
2022/12/30 04:05:26;;;;;;;;;7.00;7.00;;;;;10.01;71.75;100566.41;2106226;28;45576;-62
2022/12/30 04:06:26;;;;;;;;;7.00;7.00;;;;;10.01;71.58;100558.47;2106530;27;46658;-62
2022/12/30 04:07:26;;;;;;;;;8.67;8.67;;;;;10.02;71.50;100554.91;2114395;27;46376;-62
2022/12/30 04:08:27;;;;;;;;;9.33;9.00;;;;;10.03;71.66;100559.31;2114041;27;45971;-61
2022/12/30 04:09:27;;;;;;;;;7.67;7.33;;;;;10.05;71.59;100554.00;2114377;27;46376;-62
2022/12/30 04:10:28;;;;;;;;;11.25;9.75;;;;;10.05;71.70;100559.28;2114757;27;46312;-62
2022/12/30 04:11:28;;;;;;;;;12.50;8.50;;;;;10.04;71.35;100550.47;2113950;27;46236;-62
2022/12/30 04:12:28;;;;;;;;;12.25;11.75;;;;;10.06;71.43;100553.09;2113786;27;46183;-62
2022/12/30 04:13:29;;;;;;;;;9.25;9.25;;;;;10.08;71.45;100549.47;2113779;27;46808;-62
2022/12/30 04:14:29;;;;;;;;;9.33;8.00;;;;;10.09;71.36;100548.56;2113933;27;45949;-62
2022/12/30 04:15:29;;;;;;;;;8.25;7.00;;;;;10.09;71.27;100545.91;2114943;27;45677;-61
2022/12/30 04:16:30;;;;;;;;;7.25;7.25;;;;;10.09;71.53;100555.66;2113615;27;46773;-61
2022/12/30 04:17:30;;;;;;;;;10.00;9.33;;;;;10.09;71.48;100553.88;2114470;27;46441;-62
2022/12/30 04:18:30;;;;;;;;;8.00;8.00;;;;;10.09;71.29;100551.22;2113372;27;46716;-62
2022/12/30 04:19:31;;;;;;;;;7.75;7.75;;;;;10.10;71.21;100547.66;2113770;27;46811;-61
2022/12/30 04:20:31;;;;;;;;;7.00;6.75;;;;;10.11;71.38;100552.06;2114512;27;45479;-61
2022/12/30 04:21:31;;;;;;;;;9.50;8.00;;;;;10.11;71.18;100552.06;2111257;27;46148;-61
2022/12/30 04:22:32;;;;;;;;;10.00;8.25;;;;;10.10;71.43;100550.31;2105783;28;46763;-61
2022/12/30 04:23:32;;;;;;;;;10.75;10.75;;;;;10.07;71.37;100547.75;2111523;27;46476;-61
2022/12/30 04:24:32;;;;;;;;;9.00;8.25;;;;;10.08;71.44;100548.63;2114348;27;46629;-61
2022/12/30 04:25:33;;;;;;;;;11.75;8.75;;;;;10.05;71.43;100560.16;2113943;27;46310;-62
2022/12/30 04:26:33;;;;;;;;;9.75;9.75;;;;;10.02;71.64;100546.94;2113951;27;45694;-62
2022/12/30 04:27:33;;;;;;;;;6.67;6.33;;;;;10.00;71.98;100548.78;2111585;27;46232;-62
2022/12/30 04:28:34;;;;;;;;;9.00;8.00;;;;;9.99;71.79;100550.56;2106591;27;46961;-66
2022/12/30 04:29:34;;;;;;;;;9.00;8.33;;;;;9.98;71.66;100555.88;2108111;27;46484;-62
2022/12/30 04:30:35;;;;;;;;;8.25;8.00;;;;;9.98;71.95;100546.16;2114510;27;46178;-62
2022/12/30 04:31:35;;;;;;;;;12.00;8.00;;;;;9.98;71.87;100561.19;2111966;27;47126;-61
2022/12/30 04:32:35;;;;;;;;;8.75;8.75;;;;;9.96;72.00;100553.28;2112102;27;46578;-63
2022/12/30 04:33:36;;;;;;;;;8.33;6.33;;;;;9.96;72.38;100552.41;2114093;27;46572;-61
2022/12/30 04:34:36;;;;;;;;;9.67;8.67;;;;;9.95;72.30;100551.53;2108030;27;46311;-62
2022/12/30 04:35:36;;;;;;;;;5.00;5.00;;;;;9.95;72.24;100550.66;2105998;28;46369;-62
2022/12/30 04:36:37;;;;;;;;;9.00;7.00;;;;;9.95;72.27;100546.22;2114139;27;46225;-62
2022/12/30 04:37:37;;;;;;;;;6.00;6.00;;;;;9.95;72.17;100545.34;2113250;27;45657;-62
2022/12/30 04:38:38;;;;;;;;;7.00;5.00;;;;;9.96;71.96;100547.09;2113815;27;46575;-61
2022/12/30 04:39:38;;;;;;;;;7.25;7.25;;;;;9.95;72.24;100553.31;2113992;27;46396;-62
2022/12/30 04:40:38;;;;;;;;;7.00;6.25;;;;;9.95;72.37;100555.97;2121319;27;46763;-62
2022/12/30 04:41:38;;;;;;;;;7.00;7.00;;;;;9.93;72.43;100542.75;2113950;27;46304;-62
2022/12/30 04:42:39;;;;;;;;;10.00;6.00;;;;;9.92;72.37;100551.59;2104625;27;46553;-62
2022/12/30 04:43:39;;;;;;;;;6.00;6.00;;;;;9.90;72.75;100550.75;2104712;28;46898;-62
2022/12/30 04:44:40;;;;;;;;;6.67;6.67;;;;;9.89;72.53;100546.34;2105776;28;46905;-62
2022/12/30 04:45:40;;;;;;;;;8.67;7.00;;;;;9.89;72.30;100546.34;2105674;28;46683;-61
2022/12/30 04:46:40;;;;;;;;;5.33;4.33;;;;;9.91;72.35;100548.97;2105868;28;46855;-61
2022/12/30 04:47:41;;;;;;;;;6.00;6.00;;;;;9.92;72.38;100537.47;2105668;28;46650;-61
2022/12/30 04:48:41;;;;;;;;;3.33;3.33;;;;;9.92;72.35;100534.84;2105394;28;45403;-62
2022/12/30 04:49:41;;;;;;;;;7.75;5.50;;;;;9.93;72.33;100536.56;2097336;28;46568;-62
2022/12/30 04:50:44;;;;;;;;;6.00;6.00;;;;;9.93;72.57;100526.84;2100004;28;45948;-61
2022/12/30 04:51:44;;;;;;;;;8.00;6.25;;;;;9.94;72.41;100531.22;2097561;28;46364;-60
2022/12/30 04:52:44;;;;;;;;;5.00;5.00;;;;;9.95;72.38;100525.03;2104684;28;46315;-63
2022/12/30 04:53:45;;;;;;;;;6.00;4.67;;;;;9.94;72.35;100525.06;2103317;28;46275;-62
2022/12/30 04:54:45;;;;;;;;;8.67;8.00;;;;;9.94;72.35;100522.41;2087874;28;46728;-62
2022/12/30 04:55:45;;;;;;;;;8.33;6.00;;;;;9.94;72.44;100517.09;2099344;28;46499;-61
2022/12/30 04:56:46;;;;;;;;;7.00;5.67;;;;;9.93;72.40;100518.03;2113468;27;47495;-61
2022/12/30 04:57:46;;;;;;;;;6.00;4.67;;;;;9.95;72.61;100524.16;2105871;28;46811;-62
2022/12/30 04:58:46;;;;;;;;;4.67;4.67;;;;;9.95;72.51;100518.84;2101261;28;46296;-61
2022/12/30 04:59:47;;;;;;;;;6.00;5.00;;;;;9.95;72.67;100516.19;2097390;28;46242;-62
2022/12/30 05:00:49;;;;;;;;;5.00;4.00;;;;;9.96;72.57;100512.66;2104684;28;46235;-61
2022/12/30 05:01:49;;;;;;;;;3.25;3.25;;;;;9.96;72.71;100505.56;2105825;28;46118;-61
2022/12/30 05:02:50;;;;;;;;;5.33;4.33;;;;;9.95;72.90;100501.16;2105637;28;46193;-61
2022/12/30 05:03:50;;;;;;;;;7.67;6.33;;;;;9.98;72.58;100502.88;2105617;28;46013;-62
2022/12/30 05:04:50;;;;;;;;;6.67;6.67;;;;;9.98;72.35;100497.56;2105632;28;46403;-62
2022/12/30 05:05:51;;;;;;;;;7.67;7.67;;;;;9.98;72.42;100490.47;2105728;28;46540;-62
2022/12/30 05:06:51;;;;;;;;;6.25;6.25;;;;;9.99;72.63;100499.31;2109851;27;46641;-61
2022/12/30 05:07:51;;;;;;;;;6.00;6.00;;;;;10.00;72.80;100495.75;2104832;28;46369;-62
2022/12/30 05:08:52;;;;;;;;;6.00;5.67;;;;;10.00;72.94;100491.31;2097331;28;46951;-61
2022/12/30 05:09:55;;;;;;;;;6.67;4.67;;;;;10.01;72.69;100492.19;2103000;28;46297;-62
2022/12/30 05:10:55;;;;;;;;;7.75;7.75;;;;;10.02;72.76;100491.28;2097157;28;46187;-61
2022/12/30 05:11:56;;;;;;;;;5.67;5.67;;;;;10.02;72.74;100496.59;2097041;28;46646;-62
2022/12/30 05:12:56;;;;;;;;;4.00;4.00;;;;;10.03;72.76;100487.72;2096963;28;46769;-62
2022/12/30 05:13:57;;;;;;;;;6.67;6.67;;;;;10.05;72.81;100493.00;2097137;28;46699;-61
2022/12/30 05:14:57;;;;;;;;;5.33;5.33;;;;;10.04;72.63;100478.88;2096964;28;46724;-62
2022/12/30 05:15:57;;;;;;;;;8.75;8.75;;;;;10.06;72.75;100479.72;2095588;28;46575;-61
2022/12/30 05:16:57;;;;;;;;;4.67;4.00;;;;;10.07;72.82;100472.63;2096696;28;46123;-61
2022/12/30 05:17:58;;;;;;;;;7.00;5.67;;;;;10.08;72.62;100479.69;2100316;28;45511;-61
2022/12/30 05:18:58;;;;;;;;;6.00;4.67;;;;;10.07;73.04;100465.56;2105863;28;45692;-61
2022/12/30 05:19:58;;;;;;;;;5.00;5.00;;;;;10.07;72.95;100462.91;2099060;28;46618;-63
2022/12/30 05:20:59;;;;;;;;;10.00;6.00;;;;;10.06;72.96;100463.81;2098115;28;46265;-61
2022/12/30 05:21:59;;;;;;;;;6.00;5.67;;;;;10.07;72.91;100452.28;2105393;27;46339;-62
2022/12/30 05:22:59;;;;;;;;;6.00;5.33;;;;;10.07;72.88;100446.13;2106870;27;45752;-61
2022/12/30 05:26:45;;;;;;;;;5.50;5.50;;;;;10.12;73.12;100442.44;2091051;28;46636;-61
2022/12/30 05:27:46;;;;;;;;;7.67;6.67;;;;;10.15;72.79;100458.25;2092919;28;46252;-61
2022/12/30 05:28:48;;;;;;;;;5.00;5.00;;;;;10.16;72.92;100448.53;2095806;28;45493;-60
2022/12/30 05:29:51;;;;;;;;;6.50;5.50;;;;;10.18;72.81;100449.38;2081403;28;46574;-61
2022/12/30 05:30:51;;;;;;;;;6.25;6.25;;;;;10.18;72.61;100450.25;2081452;28;46455;-61
2022/12/30 05:31:51;;;;;;;;;6.00;5.00;;;;;10.18;72.74;100455.56;2096123;28;45398;-61
2022/12/30 05:32:52;;;;;;;;;7.67;6.00;;;;;10.17;73.25;100443.22;2092050;28;45414;-61
2022/12/30 05:33:52;;;;;;;;;5.00;5.00;;;;;10.17;72.94;100445.00;2087758;28;46854;-62
2022/12/30 05:34:53;;;;;;;;;7.00;7.00;;;;;10.18;73.03;100449.38;2086046;28;46454;-62
2022/12/30 05:35:53;;;;;;;;;7.00;6.00;;;;;10.18;73.18;100449.38;2084285;28;46181;-62
2022/12/30 05:36:53;;;;;;;;;5.33;5.33;;;;;10.20;72.83;100450.22;2070919;28;46337;-62
2022/12/30 05:37:54;;;;;;;;;7.00;7.00;;;;;10.19;72.83;100446.69;2077231;28;46207;-62
2022/12/30 05:38:54;;;;;;;;;5.33;5.00;;;;;10.21;72.89;100444.00;2087535;28;46262;-61
2022/12/30 05:39:54;;;;;;;;;7.00;6.00;;;;;10.22;72.85;100445.78;2087677;28;46286;-62
2022/12/30 05:40:55;;;;;;;;;4.00;4.00;;;;;10.23;72.84;100439.56;2088975;28;46793;-62
2022/12/30 05:41:55;;;;;;;;;5.00;5.00;;;;;10.24;72.92;100444.81;2087581;28;46680;-61
2022/12/30 05:42:55;;;;;;;;;7.33;5.67;;;;;10.26;73.07;100431.53;2093909;28;46605;-62
2022/12/30 05:43:56;;;;;;;;;4.67;3.33;;;;;10.25;72.78;100433.31;2092691;28;46663;-62
2022/12/30 05:44:56;;;;;;;;;5.00;5.00;;;;;10.27;72.88;100431.47;2087545;28;46180;-62